Time;durP1;ratioP1;P1;durP2;ratioP2;P2;SDS_P1;SDS_P2;PMS_P1;PMS_P2;Temp;Humidity;BMP_temperature;BMP_pressure;BME280_temperature;BME280_humidity;BME280_pressure;Samples;Min_cycle;Max_cycle;Signal;HPM_P1;HPM_P2
2022/10/19 00:01:21;;;;;;;13.85;8.10;;;;;;;7.80;100.00;102827.28;5024022;28;20034;-65
2022/10/19 00:03:49;;;;;;;18.48;8.43;;;;;;;7.73;100.00;102837.19;5024664;28;20373;-65
2022/10/19 00:06:24;;;;;;;17.58;8.95;;;;;;;7.75;100.00;102828.81;5023815;28;20088;-65
2022/10/19 00:08:50;;;;;;;12.40;8.55;;;;;;;7.68;100.00;102817.66;5022277;28;20025;-66
2022/10/19 00:11:16;;;;;;;18.10;8.90;;;;;;;7.68;100.00;102809.47;5023599;28;20033;-65
2022/10/19 00:13:41;;;;;;;18.70;8.95;;;;;;;7.69;100.00;102813.91;5023933;28;20033;-65
2022/10/19 00:16:12;;;;;;;14.05;8.77;;;;;;;7.68;100.00;102820.41;5023584;28;20430;-65
2022/10/19 00:18:37;;;;;;;18.17;9.05;;;;;;;7.71;100.00;102814.63;5024386;28;20693;-65
2022/10/19 00:21:05;;;;;;;16.38;8.73;;;;;;;7.70;100.00;102818.34;5023287;28;20022;-65
2022/10/19 00:23:30;;;;;;;16.17;8.37;;;;;;;7.75;100.00;102810.50;5023973;28;20028;-65
2022/10/19 00:25:56;;;;;;;21.38;9.30;;;;;;;7.84;100.00;102810.56;5023210;28;20268;-66
2022/10/19 00:28:22;;;;;;;19.25;8.63;;;;;;;7.80;100.00;102810.88;5024124;28;20056;-65
2022/10/19 00:30:47;;;;;;;15.82;8.25;;;;;;;7.80;100.00;102815.50;5023886;28;20025;-65
2022/10/19 00:33:12;;;;;;;17.67;8.65;;;;;;;8.03;100.00;102813.03;5023920;28;20053;-65
2022/10/19 00:35:40;;;;;;;17.17;8.63;;;;;;;8.21;100.00;102808.31;5024643;28;20025;-65
2022/10/19 00:38:06;;;;;;;23.73;8.77;;;;;;;8.37;100.00;102799.31;5027258;28;20029;-65
2022/10/19 00:40:38;;;;;;;19.23;8.93;;;;;;;8.58;100.00;102805.16;5027123;28;20079;-66
2022/10/19 00:43:04;;;;;;;19.92;8.88;;;;;;;8.61;100.00;102803.09;5027403;28;20096;-65
2022/10/19 00:45:30;;;;;;;20.05;8.45;;;;;;;8.58;100.00;102802.41;5027523;28;20021;-65
2022/10/19 00:47:55;;;;;;;19.67;8.40;;;;;;;8.54;100.00;102806.50;5027451;28;20380;-66
2022/10/19 00:50:20;;;;;;;19.17;8.98;;;;;;;8.50;100.00;102807.00;5027195;28;20034;-66
2022/10/19 00:52:46;;;;;;;20.77;8.75;;;;;;;8.49;100.00;102808.03;5028129;28;20036;-65
2022/10/19 00:55:12;;;;;;;20.38;8.13;;;;;;;8.62;100.00;102810.28;5026418;28;20344;-65
2022/10/19 00:57:38;;;;;;;14.43;8.93;;;;;;;8.57;100.00;102811.66;5026252;28;20049;-65
2022/10/19 01:00:07;;;;;;;19.52;8.82;;;;;;;8.57;100.00;102810.81;5027193;28;20052;-65
2022/10/19 01:02:32;;;;;;;18.40;9.30;;;;;;;8.53;100.00;102812.16;5027151;28;20045;-65
2022/10/19 01:04:58;;;;;;;19.83;8.77;;;;;;;8.49;100.00;102810.78;5026979;28;20333;-65
2022/10/19 01:07:25;;;;;;;21.00;9.68;;;;;;;8.41;100.00;102810.75;5026880;28;20017;-65
2022/10/19 01:09:51;;;;;;;22.95;9.60;;;;;;;8.36;100.00;102810.38;5075046;22;20204;-66
2022/10/19 01:12:50;;;;;;;22.73;9.07;;;;;;;8.44;100.00;102810.44;5026922;28;20105;-65
2022/10/19 01:15:45;;;;;;;19.17;8.70;;;;;;;8.24;100.00;102807.97;5026567;28;20064;-65
2022/10/19 01:18:19;;;;;;;19.90;8.98;;;;;;;8.29;100.00;102802.84;5025687;28;20496;-65
2022/10/19 01:21:11;;;;;;;18.50;9.68;;;;;;;8.27;100.00;102804.03;5026346;28;20021;-65
2022/10/19 01:24:15;;;;;;;24.17;9.30;;;;;;;8.19;100.00;102810.34;5024899;28;20033;-65
2022/10/19 01:27:06;;;;;;;19.95;8.85;;;;;;;8.16;100.00;102794.28;5023348;28;20064;-65
2022/10/19 01:29:42;;;;;;;18.15;9.70;;;;;;;8.08;100.00;102791.50;5026571;28;20057;-65
2022/10/19 01:32:20;;;;;;;20.15;9.65;;;;;;;8.15;100.00;102797.16;5025666;28;20061;-65
2022/10/19 01:35:12;;;;;;;21.02;9.50;;;;;;;8.09;100.00;102792.34;5026557;28;20520;-65
2022/10/19 01:37:49;;;;;;;26.75;9.75;;;;;;;7.99;100.00;102790.59;5026142;28;20028;-65
2022/10/19 01:40:31;;;;;;;16.52;9.73;;;;;;;7.98;100.00;102796.25;5025363;28;20163;-65
2022/10/19 01:43:08;;;;;;;17.00;9.52;;;;;;;7.74;100.00;102797.88;5025889;28;20419;-65
2022/10/19 01:46:00;;;;;;;19.55;9.23;;;;;;;7.62;100.00;102801.06;5026098;28;20025;-65
2022/10/19 01:48:33;;;;;;;16.27;8.57;;;;;;;7.47;100.00;102796.22;5025720;28;20486;-65
2022/10/19 01:50:58;;;;;;;18.33;8.98;;;;;;;7.42;100.00;102793.09;5025060;28;20410;-65
2022/10/19 01:53:27;;;;;;;16.43;8.43;;;;;;;7.42;100.00;102800.44;5026327;28;20034;-65
2022/10/19 01:55:54;;;;;;;18.23;8.63;;;;;;;7.34;100.00;102797.66;5037962;28;20359;-65
2022/10/19 01:58:27;;;;;;;18.73;9.05;;;;;;;7.33;100.00;102794.06;5045532;28;20132;-65
2022/10/19 02:00:56;;;;;;;15.38;8.75;;;;;;;7.29;100.00;102792.66;5045665;28;20083;-65
2022/10/19 02:03:22;;;;;;;;;;;;;;;7.40;100.00;102792.41;5045787;28;20075;-65
2022/10/19 02:05:50;;;;;;;15.63;7.68;;;;;;;7.28;100.00;102789.09;5045571;28;20345;-65
2022/10/19 02:08:25;;;;;;;15.85;8.90;;;;;;;7.22;100.00;102778.81;5045986;28;20324;-65
2022/10/19 02:10:52;;;;;;;15.10;8.60;;;;;;;7.19;100.00;102775.53;5044364;28;20068;-65
2022/10/19 02:13:20;;;;;;;15.07;8.00;;;;;;;7.10;100.00;102773.78;5045650;28;20391;-65
2022/10/19 02:15:49;;;;;;;12.87;8.70;;;;;;;7.06;100.00;102765.03;5046002;28;20103;-65
2022/10/19 02:18:21;;;;;;;13.20;7.97;;;;;;;7.01;100.00;102767.41;5045483;28;20325;-65
2022/10/19 02:20:46;;;;;;;13.63;8.27;;;;;;;7.01;100.00;102765.53;5044891;28;20501;-65
2022/10/19 02:23:17;;;;;;;14.15;8.63;;;;;;;6.97;100.00;102760.53;5045089;28;20120;-65
2022/10/19 02:25:42;;;;;;;12.50;8.00;;;;;;;6.90;100.00;102754.88;5043679;28;20124;-65
2022/10/19 02:28:08;;;;;;;14.95;8.20;;;;;;;6.88;100.00;102758.75;5044977;28;20115;-65
2022/10/19 02:30:33;;;;;;;13.23;7.78;;;;;;;6.81;100.00;102754.97;5044927;28;20112;-65
2022/10/19 02:32:58;;;;;;;12.15;7.70;;;;;;;6.79;100.00;102756.97;5045130;28;20067;-65
2022/10/19 02:35:24;;;;;;;16.52;8.00;;;;;;;6.73;100.00;102745.66;5044250;28;20029;-65
2022/10/19 02:37:49;;;;;;;14.52;8.50;;;;;;;6.67;100.00;102737.25;5045064;28;20083;-65
2022/10/19 02:40:15;;;;;;;14.55;8.77;;;;;;;6.64;100.00;102741.19;5044293;28;20379;-65
2022/10/19 02:42:46;;;;;;;12.15;7.88;;;;;;;6.63;100.00;102733.13;5044405;28;20136;-65
2022/10/19 02:45:25;;;;;;;14.35;8.30;;;;;;;6.67;100.00;102731.81;5044262;28;20009;-65
2022/10/19 02:48:00;;;;;;;16.98;8.63;;;;;;;6.65;100.00;102734.69;5044256;28;20228;-65
2022/10/19 02:50:27;;;;;;;15.18;8.52;;;;;;;6.64;100.00;102727.53;5044173;28;20024;-65
2022/10/19 02:52:52;;;;;;;15.35;8.57;;;;;;;6.68;100.00;102733.50;5044470;28;20175;-65
2022/10/19 02:55:18;;;;;;;21.70;9.43;;;;;;;6.69;100.00;102744.28;5043936;28;20020;-65
2022/10/19 02:57:43;;;;;;;18.33;8.70;;;;;;;6.68;100.00;102739.81;5044456;28;20328;-65
2022/10/19 03:00:09;;;;;;;14.23;8.18;;;;;;;6.62;100.00;102739.63;5043432;28;20043;-65
2022/10/19 03:02:35;;;;;;;15.52;8.43;;;;;;;6.57;100.00;102734.63;5044513;28;20130;-65
2022/10/19 03:05:00;;;;;;;17.08;8.98;;;;;;;6.55;100.00;102744.84;5042551;28;20055;-65
2022/10/19 03:07:25;;;;;;;16.60;8.90;;;;;;;6.54;100.00;102745.88;5044532;28;20120;-65
2022/10/19 03:09:51;;;;;;;17.17;8.90;;;;;;;6.52;100.00;102738.84;5042878;28;20055;-65
2022/10/19 03:12:16;;;;;;;14.10;8.85;;;;;;;6.53;100.00;102737.81;5044132;28;20108;-65
2022/10/19 03:14:42;;;;;;;15.90;8.32;;;;;;;6.48;100.00;102733.69;5044677;28;20346;-65
2022/10/19 03:17:07;;;;;;;26.05;8.73;;;;;;;6.47;100.00;102744.78;5043452;28;20495;-65
2022/10/19 03:19:34;;;;;;;16.80;9.30;;;;;;;6.45;100.00;102746.81;5043882;28;20025;-65
2022/10/19 03:21:59;;;;;;;13.55;8.23;;;;;;;6.43;100.00;102740.63;5041716;28;20128;-65
2022/10/19 03:24:25;;;;;;;12.85;8.75;;;;;;;6.40;100.00;102730.91;5043506;28;20551;-65
2022/10/19 03:26:50;;;;;;;17.80;9.18;;;;;;;6.39;100.00;102736.53;5043433;28;20025;-65
2022/10/19 03:29:15;;;;;;;17.08;9.57;;;;;;;6.49;100.00;102727.25;5044892;28;20095;-64
2022/10/19 03:31:40;;;;;;;22.02;9.55;;;;;;;6.52;100.00;102722.47;5044150;28;20025;-64
2022/10/19 03:34:06;;;;;;;20.92;8.82;;;;;;;6.57;100.00;102729.16;5043159;28;20027;-64
2022/10/19 03:36:33;;;;;;;12.90;8.18;;;;;;;6.53;100.00;102725.03;5043704;28;20100;-65
2022/10/19 03:39:02;;;;;;;16.90;9.02;;;;;;;6.52;100.00;102733.38;5042609;28;20021;-65
2022/10/19 03:41:29;;;;;;;15.40;8.30;;;;;;;6.47;100.00;102725.66;5043850;28;20021;-65
2022/10/19 03:43:56;;;;;;;16.10;8.65;;;;;;;6.48;100.00;102736.41;5043064;28;20017;-65
2022/10/19 03:46:22;;;;;;;14.90;8.27;;;;;;;6.46;100.00;102729.41;5044005;28;20036;-65
2022/10/19 03:48:48;;;;;;;15.50;8.75;;;;;;;6.42;100.00;102725.28;5043967;28;20390;-65
2022/10/19 03:51:15;;;;;;;14.30;9.02;;;;;;;6.44;100.00;102734.19;5043724;28;20048;-65
2022/10/19 03:53:41;;;;;;;13.37;8.37;;;;;;;6.44;100.00;102736.91;5042832;28;20082;-65
2022/10/19 03:56:11;;;;;;;15.57;8.57;;;;;;;6.42;100.00;102741.66;5043419;28;20017;-65
2022/10/19 03:58:38;;;;;;;16.85;8.70;;;;;;;6.42;100.00;102744.38;5043204;28;20028;-65
2022/10/19 04:01:11;;;;;;;16.00;8.45;;;;;;;6.43;100.00;102737.91;5043316;28;20040;-65
2022/10/19 04:03:37;;;;;;;18.20;9.00;;;;;;;6.39;100.00;102745.56;5043619;28;20108;-65
2022/10/19 04:06:05;;;;;;;15.45;8.25;;;;;;;6.36;100.00;102742.28;5041182;28;20049;-65
2022/10/19 04:08:30;;;;;;;21.48;9.05;;;;;;;6.38;100.00;102740.25;5042659;28;20023;-65
2022/10/19 04:11:00;;;;;;;18.27;9.02;;;;;;;6.38;100.00;102742.97;5042570;28;20313;-65
2022/10/19 04:13:26;;;;;;;16.25;8.75;;;;;;;6.34;100.00;102745.19;5043060;28;20044;-65
2022/10/19 04:15:51;;;;;;;19.02;8.55;;;;;;;6.33;100.00;102748.06;5043015;28;20406;-65
2022/10/19 04:18:17;;;;;;;19.05;9.38;;;;;;;6.33;100.00;102742.59;5043481;28;20424;-65
2022/10/19 04:20:42;;;;;;;17.05;9.30;;;;;;;6.34;100.00;102744.34;5042631;28;20037;-65
2022/10/19 04:23:08;;;;;;;15.45;8.32;;;;;;;6.33;100.00;102739.88;5043104;28;20457;-65
2022/10/19 04:25:33;;;;;;;16.80;8.38;;;;;;;6.31;100.00;102745.47;5042408;28;20110;-65
2022/10/19 04:27:58;;;;;;;15.77;8.00;;;;;;;6.31;100.00;102739.19;5043163;28;20028;-65
2022/10/19 04:30:23;;;;;;;14.65;8.73;;;;;;;6.27;100.00;102726.84;5043217;28;20021;-65
2022/10/19 04:32:49;;;;;;;13.90;8.20;;;;;;;6.27;100.00;102730.44;5043220;28;20396;-65
2022/10/19 04:35:14;;;;;;;14.98;9.35;;;;;;;6.27;100.00;102735.88;5043354;28;20024;-65
2022/10/19 04:37:39;;;;;;;17.17;8.45;;;;;;;6.34;100.00;102723.34;5042981;28;20028;-65
2022/10/19 04:40:05;;;;;;;16.83;8.15;;;;;;;6.41;100.00;102724.44;5042026;28;20027;-65
2022/10/19 04:42:31;;;;;;;16.23;8.93;;;;;;;6.46;100.00;102727.53;5042751;28;20033;-65
2022/10/19 04:44:56;;;;;;;14.88;8.95;;;;;;;6.48;100.00;102730.97;5043059;28;20017;-65
2022/10/19 04:47:21;;;;;;;18.25;9.15;;;;;;;6.50;100.00;102737.13;5043389;28;20029;-65
2022/10/19 04:49:46;;;;;;;14.80;8.82;;;;;;;6.41;100.00;102729.88;5043189;28;20033;-65
2022/10/19 04:52:12;;;;;;;18.52;8.95;;;;;;;6.35;100.00;102735.13;5042480;28;20025;-64
2022/10/19 04:54:37;;;;;;;12.95;8.95;;;;;;;6.30;100.00;102730.13;5041724;28;20017;-65
2022/10/19 04:57:02;;;;;;;17.05;8.50;;;;;;;6.34;100.00;102734.28;5042884;28;20029;-65
2022/10/19 04:59:28;;;;;;;16.83;8.45;;;;;;;6.46;100.00;102724.81;5041386;28;20067;-65
2022/10/19 05:01:53;;;;;;;18.23;9.10;;;;;;;6.56;100.00;102727.47;5042358;28;20017;-65
2022/10/19 05:04:18;;;;;;;15.23;8.80;;;;;;;6.46;100.00;102732.16;5043119;28;20387;-65
2022/10/19 05:06:43;;;;;;;16.15;8.95;;;;;;;6.43;100.00;102732.44;5042746;28;20024;-65
2022/10/19 05:09:09;;;;;;;15.27;8.45;;;;;;;6.52;100.00;102730.66;5041295;28;20051;-65
2022/10/19 05:11:34;;;;;;;15.82;9.13;;;;;;;6.50;100.00;102728.09;5042638;28;20021;-65
2022/10/19 05:13:59;;;;;;;13.35;8.25;;;;;;;6.41;100.00;102729.88;5042202;28;20021;-65
2022/10/19 05:16:24;;;;;;;16.13;9.77;;;;;;;6.43;100.00;102737.91;5042843;28;20040;-65
2022/10/19 05:18:55;;;;;;;13.48;7.60;;;;;;;6.34;100.00;102733.41;5042128;28;20079;-65
2022/10/19 05:21:20;;;;;;;13.30;8.40;;;;;;;6.24;100.00;102728.88;5042630;28;20037;-65
2022/10/19 05:23:49;;;;;;;15.15;8.77;;;;;;;6.29;100.00;102724.84;5045712;28;20033;-65
2022/10/19 05:26:16;;;;;;;;;;;;;;;6.41;100.00;102716.25;5046697;28;20036;-65
2022/10/19 05:28:42;;;;;;;17.57;9.50;;;;;;;6.45;100.00;102714.91;5046197;28;20369;-65
2022/10/19 05:31:10;;;;;;;15.90;9.45;;;;;;;6.47;100.00;102712.88;5046172;28;20025;-65
2022/10/19 05:33:37;;;;;;;17.27;9.88;;;;;;;6.48;100.00;102719.19;5045992;28;20215;-65
2022/10/19 05:36:18;;;;;;;20.20;8.80;;;;;;;6.44;100.00;102709.63;5045574;28;20033;-64
2022/10/19 05:38:46;;;;;;;15.68;9.57;;;;;;;6.44;100.00;102706.91;5045282;28;20025;-65
2022/10/19 05:41:12;;;;;;;17.20;9.80;;;;;;;6.52;100.00;102701.47;5045607;28;20025;-65
2022/10/19 05:43:38;;;;;;;15.15;9.07;;;;;;;6.39;100.00;102704.63;5046442;28;20220;-65
2022/10/19 05:46:10;;;;;;;15.25;8.77;;;;;;;6.35;100.00;102699.66;5045489;28;20037;-65
2022/10/19 05:48:36;;;;;;;21.42;9.93;;;;;;;6.37;100.00;102703.91;5046118;28;20033;-64
2022/10/19 05:51:04;;;;;;;15.45;9.38;;;;;;;6.44;100.00;102706.91;5044980;28;20033;-65
2022/10/19 05:53:30;;;;;;;18.30;9.07;;;;;;;6.44;100.00;102710.47;5044985;28;20032;-65
2022/10/19 05:55:55;;;;;;;16.92;10.70;;;;;;;6.44;100.00;102705.03;5045311;28;20506;-65
2022/10/19 05:58:21;;;;;;;17.90;9.65;;;;;;;6.42;100.00;102698.00;5045754;28;20051;-65
2022/10/19 06:00:54;;;;;;;14.27;9.55;;;;;;;6.38;100.00;102702.03;5046030;28;20023;-65
2022/10/19 06:03:20;;;;;;;15.50;9.38;;;;;;;6.63;100.00;102700.38;5045321;28;20040;-65
2022/10/19 06:05:46;;;;;;;14.40;10.13;;;;;;;6.46;100.00;102699.41;5045765;28;20025;-65
2022/10/19 06:08:12;;;;;;;18.17;9.70;;;;;;;6.42;100.00;102703.44;5042360;28;20031;-65
2022/10/19 06:10:37;;;;;;;16.75;9.27;;;;;;;6.36;100.00;102710.41;5045088;28;20052;-65
2022/10/19 06:13:02;;;;;;;18.17;9.23;;;;;;;6.32;100.00;102708.13;5045291;28;20025;-65
2022/10/19 06:15:32;;;;;;;18.27;9.20;;;;;;;6.21;100.00;102701.91;5044996;28;20025;-65
2022/10/19 06:17:57;;;;;;;21.05;10.40;;;;;;;6.24;100.00;102703.47;5044761;28;20372;-65
2022/10/19 06:20:22;;;;;;;20.83;10.48;;;;;;;6.41;100.00;102699.00;5044633;28;20224;-65
2022/10/19 06:22:47;;;;;;;17.73;10.70;;;;;;;6.40;100.00;102698.16;5045459;28;20434;-65
2022/10/19 06:25:13;;;;;;;21.08;10.90;;;;;;;6.40;100.00;102689.13;5043402;28;20075;-65
2022/10/19 06:27:38;;;;;;;20.13;10.95;;;;;;;6.48;100.00;102690.00;5045411;28;20029;-65
2022/10/19 06:30:04;;;;;;;18.60;11.68;;;;;;;6.43;100.00;102686.91;5044910;28;20021;-65
2022/10/19 06:32:31;;;;;;;18.05;10.93;;;;;;;6.42;100.00;102689.81;5044690;28;20044;-65
2022/10/19 06:34:56;;;;;;;20.75;12.95;;;;;;;6.50;100.00;102700.78;5044539;28;20021;-65
2022/10/19 06:37:21;;;;;;;18.08;10.75;;;;;;;6.52;100.00;102690.56;5043094;28;20217;-65
2022/10/19 06:39:46;;;;;;;22.48;10.70;;;;;;;6.72;100.00;102685.75;5044497;28;20036;-64
2022/10/19 06:42:12;;;;;;;19.05;11.40;;;;;;;6.71;100.00;102687.63;5044308;28;20025;-64
2022/10/19 06:44:37;;;;;;;22.80;12.98;;;;;;;6.72;100.00;102688.50;5043210;28;20656;-65
2022/10/19 06:47:02;;;;;;;28.30;13.93;;;;;;;6.73;100.00;102695.66;5044592;28;20020;-64
2022/10/19 06:49:27;;;;;;;25.15;12.75;;;;;;;6.67;100.00;102702.63;5044569;28;20035;-65
2022/10/19 06:51:53;;;;;;;20.60;12.63;;;;;;;6.65;100.00;102707.41;5043831;28;20021;-65
2022/10/19 06:54:18;;;;;;;21.73;12.23;;;;;;;6.64;100.00;102700.22;5043471;28;20103;-65
2022/10/19 06:56:43;;;;;;;26.00;12.65;;;;;;;6.70;100.00;102706.94;5044239;28;20483;-65
2022/10/19 06:59:09;;;;;;;22.98;12.00;;;;;;;6.82;100.00;102712.97;5044407;28;20025;-65
2022/10/19 07:01:34;;;;;;;23.23;12.73;;;;;;;6.76;100.00;102707.13;5044163;28;20158;-65
2022/10/19 07:03:59;;;;;;;25.70;13.52;;;;;;;6.81;100.00;102705.81;5044182;28;20029;-65
2022/10/19 07:06:26;;;;;;;30.75;13.00;;;;;;;6.82;100.00;102707.50;5043500;28;20515;-65
2022/10/19 07:08:51;;;;;;;29.58;14.07;;;;;;;6.84;100.00;102708.19;5042600;28;20048;-65
2022/10/19 07:11:19;;;;;;;29.63;15.15;;;;;;;6.90;100.00;102697.50;5043955;28;20027;-65
2022/10/19 07:13:44;;;;;;;30.87;15.90;;;;;;;6.96;100.00;102690.53;5044368;28;20040;-65
2022/10/19 07:16:12;;;;;;;25.60;16.55;;;;;;;7.01;100.00;102693.63;5043900;28;20403;-64
2022/10/19 07:18:39;;;;;;;28.92;16.98;;;;;;;7.07;100.00;102692.13;5044246;28;20064;-65
2022/10/19 07:21:08;;;;;;;31.77;17.92;;;;;;;7.10;100.00;102694.53;5043144;28;20023;-65
2022/10/19 07:23:35;;;;;;;29.15;17.30;;;;;;;7.16;100.00;102702.94;5042891;28;20033;-64
2022/10/19 07:26:11;;;;;;;34.03;18.63;;;;;;;7.29;100.00;102706.06;5043597;28;20013;-65
2022/10/19 07:28:40;;;;;;;34.00;18.27;;;;;;;7.33;100.00;102703.88;5043463;28;20025;-64
2022/10/19 07:31:12;;;;;;;27.73;17.25;;;;;;;7.46;100.00;102697.97;5043533;28;20212;-64
2022/10/19 07:33:38;;;;;;;30.05;18.40;;;;;;;7.49;100.00;102703.06;5043133;28;20035;-65
2022/10/19 07:36:06;;;;;;;29.00;18.50;;;;;;;7.62;100.00;102698.00;5043135;28;20032;-64
2022/10/19 07:38:32;;;;;;;29.65;19.13;;;;;;;7.67;100.00;102702.97;5042747;28;20021;-65
2022/10/19 07:41:05;;;;;;;31.20;18.90;;;;;;;7.73;100.00;102708.63;5043190;28;20103;-65
2022/10/19 07:43:31;;;;;;;34.22;19.67;;;;;;;7.82;100.00;102717.72;5043364;28;20471;-65
2022/10/19 07:46:06;;;;;;;33.75;20.73;;;;;;;7.88;100.00;102714.31;5042458;28;20082;-65
2022/10/19 07:48:32;;;;;;;33.50;20.77;;;;;;;7.97;100.00;102712.47;5043057;28;20033;-65
2022/10/19 07:51:03;;;;;;;33.60;18.17;;;;;;;8.13;100.00;102704.28;5042657;28;20104;-65
2022/10/19 07:53:28;;;;;;;30.90;19.80;;;;;;;8.18;100.00;102701.03;5042656;28;20029;-65
2022/10/19 07:55:54;;;;;;;30.75;18.45;;;;;;;8.28;100.00;102694.38;5042328;28;20029;-65
2022/10/19 07:58:19;;;;;;;33.88;18.15;;;;;;;8.37;100.00;102697.16;5043239;28;20024;-65
2022/10/19 08:00:45;;;;;;;27.15;17.45;;;;;;;8.49;100.00;102684.81;5043809;28;20029;-65
2022/10/19 08:03:10;;;;;;;26.88;16.98;;;;;;;8.64;100.00;102682.25;5042384;28;20017;-65
2022/10/19 08:05:36;;;;;;;27.75;17.75;;;;;;;8.69;100.00;102686.16;5042542;28;20029;-65
2022/10/19 08:08:01;;;;;;;26.60;18.02;;;;;;;8.83;100.00;102685.47;5041690;28;20538;-65
2022/10/19 08:10:27;;;;;;;29.38;14.15;;;;;;;9.04;100.00;102670.34;5042501;28;20041;-65
2022/10/19 08:12:52;;;;;;;23.45;15.20;;;;;;;9.61;100.00;102672.84;5042654;28;20024;-65
2022/10/19 08:15:17;;;;;;;28.92;15.52;;;;;;;10.43;100.00;102669.53;5042700;28;20075;-65
2022/10/19 08:17:43;;;;;;;24.52;13.60;;;;;;;10.74;96.34;102675.75;5042667;28;20119;-65
2022/10/19 08:20:08;;;;;;;24.92;14.07;;;;;;;10.62;96.11;102672.63;5041666;28;20361;-65
2022/10/19 08:22:34;;;;;;;24.00;14.38;;;;;;;10.47;96.82;102681.88;5042855;28;20053;-65
2022/10/19 08:24:59;;;;;;;25.25;15.25;;;;;;;10.33;98.19;102687.13;5041755;28;20025;-65
2022/10/19 08:27:24;;;;;;;23.25;14.68;;;;;;;10.33;98.11;102680.78;5042278;28;20550;-65
2022/10/19 08:29:50;;;;;;;27.25;15.10;;;;;;;10.30;98.23;102687.50;5042334;28;20025;-66
2022/10/19 08:32:16;;;;;;;26.05;15.43;;;;;;;10.45;98.23;102683.97;5043358;28;20033;-65
2022/10/19 08:34:42;;;;;;;27.40;15.13;;;;;;;10.96;97.12;102674.00;5042797;28;20025;-65
2022/10/19 08:37:07;;;;;;;22.83;14.43;;;;;;;12.23;89.56;102669.03;5041699;28;20085;-65
2022/10/19 08:39:32;;;;;;;20.60;12.20;;;;;;;13.69;82.12;102653.47;5041588;28;20029;-66
2022/10/19 08:42:02;;;;;;;18.55;11.65;;;;;;;14.93;76.57;102647.41;5040878;28;20477;-66
2022/10/19 08:44:46;;;;;;;20.30;10.52;;;;;;;15.89;71.18;102638.34;5042434;28;20053;-66
2022/10/19 08:47:36;;;;;;;18.13;10.52;;;;;;;16.79;67.79;102639.78;5042408;28;20023;-66
2022/10/19 08:50:13;;;;;;;22.58;10.32;;;;;;;17.97;61.62;102630.22;5042047;28;20033;-66
2022/10/19 08:52:40;;;;;;;18.52;10.50;;;;;;;18.98;58.23;102619.09;5041863;28;20086;-66
2022/10/19 08:55:14;;;;;;;18.95;8.63;;;;;;;19.88;56.29;102621.28;5041615;28;20061;-66
2022/10/19 08:58:02;;;;;;;21.30;9.20;;;;;;;20.33;55.56;102631.59;5044691;28;20364;-66
2022/10/19 09:00:30;;;;;;;;;;;;;;;20.01;54.15;102626.53;5046235;28;20358;-67
2022/10/19 09:03:22;;;;;;;15.68;8.07;;;;;;;20.15;53.65;102624.28;5045584;28;19912;-66
2022/10/19 09:06:11;;;;;;;17.85;8.35;;;;;;;20.21;53.81;102631.66;5038370;28;20108;-66
2022/10/19 09:08:38;;;;;;;18.13;8.35;;;;;;;21.05;49.29;102631.63;5044674;28;20024;-66
2022/10/19 09:11:07;;;;;;;13.45;8.05;;;;;;;20.91;48.74;102631.13;5045891;28;20033;-66
2022/10/19 09:13:45;;;;;;;14.18;7.05;;;;;;;20.92;50.23;102626.41;5046320;28;20044;-66
2022/10/19 09:16:13;;;;;;;14.70;7.28;;;;;;;20.98;47.99;102619.78;5045160;28;20021;-67
2022/10/19 09:18:39;;;;;;;;;;;;;;;21.17;52.21;102604.41;5046382;28;20060;-67
2022/10/19 09:21:18;;;;;;;14.90;7.00;;;;;;;21.26;48.35;102618.78;5045167;28;19913;-66
2022/10/19 09:24:03;;;;;;;16.35;6.95;;;;;;;21.12;48.58;102614.66;5045450;28;20032;-66
2022/10/19 09:26:34;;;;;;;12.95;5.70;;;;;;;21.56;46.57;102606.31;5045405;28;20033;-66
2022/10/19 09:29:09;;;;;;;13.73;6.07;;;;;;;21.70;46.71;102607.59;5045182;28;20029;-66
2022/10/19 09:31:39;;;;;;;10.45;4.72;;;;;;;21.84;46.29;102617.25;5044142;28;20083;-66
2022/10/19 09:34:11;;;;;;;13.90;5.32;;;;;;;21.68;45.13;102618.19;5045093;28;20029;-66
2022/10/19 09:36:41;;;;;;;16.95;5.63;;;;;;;22.01;44.88;102614.34;5045188;28;20064;-66
2022/10/19 09:39:11;;;;;;;10.60;4.70;;;;;;;22.12;44.68;102618.97;5044333;28;20025;-66
2022/10/19 09:41:45;;;;;;;11.55;4.70;;;;;;;21.58;45.84;102610.53;5045575;28;20029;-66
2022/10/19 09:44:10;;;;;;;11.48;3.85;;;;;;;21.55;45.25;102607.44;5045100;28;20072;-66
2022/10/19 09:46:44;;;;;;;11.05;3.97;;;;;;;21.64;46.02;102615.06;5044962;28;20061;-65
2022/10/19 09:49:09;;;;;;;11.13;4.30;;;;;;;21.38;44.87;102607.47;5044738;28;20032;-66
2022/10/19 09:51:44;;;;;;;10.38;4.07;;;;;;;21.48;46.35;102604.81;5045223;28;20029;-65
2022/10/19 09:54:37;;;;;;;11.35;3.63;;;;;;;21.77;46.60;102597.88;5043221;28;20478;-66
2022/10/19 09:57:04;;;;;;;9.38;3.58;;;;;;;21.52;45.38;102594.81;5044758;28;20464;-66
2022/10/19 09:59:34;;;;;;;10.85;3.17;;;;;;;21.36;46.67;102601.31;5045013;28;20032;-66
2022/10/19 10:02:13;;;;;;;12.52;3.63;;;;;;;21.76;46.34;102601.78;5044823;28;20025;-66
2022/10/19 10:04:39;;;;;;;9.60;3.00;;;;;;;21.73;43.91;102607.06;5044580;28;20025;-66
2022/10/19 10:07:04;;;;;;;7.70;2.97;;;;;;;21.31;43.86;102590.09;5043677;28;20075;-66
2022/10/19 10:09:29;;;;;;;8.90;3.20;;;;;;;20.42;47.08;102602.13;5044246;28;20063;-65
2022/10/19 10:12:01;;;;;;;9.88;3.42;;;;;;;20.43;47.48;102592.69;5044013;28;20499;-66
2022/10/19 10:14:32;;;;;;;9.48;3.08;;;;;;;20.28;47.25;102578.47;5045226;28;20434;-65
2022/10/19 10:17:29;;;;;;;10.93;3.67;;;;;;;20.80;47.97;102569.81;5044678;28;20040;-65
2022/10/19 10:19:57;;;;;;;7.30;2.80;;;;;;;21.35;45.62;102566.09;5036344;28;20040;-65
2022/10/19 10:22:28;;;;;;;12.88;3.22;;;;;;;21.66;45.54;102556.09;5042996;28;20079;-66
2022/10/19 10:24:55;;;;;;;11.40;3.10;;;;;;;22.01;43.29;102564.84;5044745;28;20029;-65
2022/10/19 10:27:31;;;;;;;13.48;3.40;;;;;;;21.82;44.26;102569.13;5044500;28;20021;-66
2022/10/19 10:29:57;;;;;;;9.57;2.97;;;;;;;22.54;43.08;102573.38;5043685;28;20115;-66
2022/10/19 10:32:22;;;;;;;8.02;2.88;;;;;;;23.22;40.75;102582.78;5044777;28;20111;-66
2022/10/19 10:35:00;;;;;;;8.10;3.22;;;;;;;23.25;42.05;102572.97;5044979;28;20021;-65
2022/10/19 10:37:42;;;;;;;8.80;2.33;;;;;;;23.13;41.61;102570.41;5042625;28;20021;-66
2022/10/19 10:40:21;;;;;;;10.75;3.13;;;;;;;21.95;44.22;102565.91;5043912;28;20383;-66
2022/10/19 10:42:49;;;;;;;6.72;2.50;;;;;;;21.55;43.52;102569.13;5045167;28;20035;-65
2022/10/19 10:45:30;;;;;;;12.55;3.33;;;;;;;20.86;45.26;102565.97;5044286;28;20028;-66
2022/10/19 10:47:57;;;;;;;10.15;3.03;;;;;;;20.36;46.47;102564.09;5043485;28;20603;-65
2022/10/19 10:50:33;;;;;;;10.18;2.92;;;;;;;20.53;48.07;102562.19;5043701;28;20090;-66
2022/10/19 10:53:25;;;;;;;10.20;2.75;;;;;;;21.11;46.89;102549.56;5043214;28;20028;-66
2022/10/19 10:55:55;;;;;;;8.63;2.80;;;;;;;21.12;45.93;102540.06;5043144;28;20518;-66
2022/10/19 10:58:46;;;;;;;9.00;2.63;;;;;;;21.04;45.02;102543.34;5043351;28;20028;-66
2022/10/19 11:01:19;;;;;;;6.45;2.67;;;;;;;20.41;45.74;102544.63;5043885;28;20032;-65
2022/10/19 11:04:04;;;;;;;9.43;2.50;;;;;;;20.67;47.81;102541.13;5043623;28;20645;-66
2022/10/19 11:06:33;;;;;;;7.20;2.83;;;;;;;21.14;45.70;102521.09;5043107;28;20387;-66
2022/10/19 11:09:07;;;;;;;8.43;3.17;;;;;;;21.16;45.56;102523.63;5041765;28;20045;-65
2022/10/19 11:11:38;;;;;;;9.35;3.35;;;;;;;21.28;44.52;102517.91;5043651;28;20032;-66
2022/10/19 11:14:37;;;;;;;8.93;2.75;;;;;;;21.36;45.09;102517.47;5043141;28;20029;-66
2022/10/19 11:17:06;;;;;;;8.18;3.20;;;;;;;21.74;43.23;102520.09;5043526;28;20033;-66
2022/10/19 11:19:41;;;;;;;12.52;2.90;;;;;;;22.86;42.02;102519.22;5042774;28;20096;-66
2022/10/19 11:22:43;;;;;;;10.48;2.90;;;;;;;23.51;40.75;102509.38;5043044;28;20063;-66
2022/10/19 11:25:20;;;;;;;10.90;3.20;;;;;;;22.90;41.38;102504.44;5021500;28;20041;-66
2022/10/19 11:28:01;;;;;;;12.35;2.97;;;;;;;22.92;40.87;102495.78;5044185;28;20131;-66